Time;durP1;ratioP1;P1;durP2;ratioP2;P2;SDS_P1;SDS_P2;PMS_P1;PMS_P2;Temp;Humidity;BMP_temperature;BMP_pressure;BME280_temperature;BME280_humidity;BME280_pressure;Samples;Min_cycle;Max_cycle;Signal;HPM_P1;HPM_P2
2023/08/24 00:01:02;;;;;;;19.40;7.72;;;;;;;16.71;100.00;101641.03;5094630;28;20032;-72
2023/08/24 00:03:28;;;;;;;20.58;8.35;;;;;;;16.72;100.00;101637.34;5105041;28;20027;-73
2023/08/24 00:05:53;;;;;;;18.63;8.32;;;;;;;16.70;100.00;101633.88;5106498;28;20186;-73
2023/08/24 00:08:19;;;;;;;19.35;7.63;;;;;;;16.73;100.00;101640.91;5102317;28;20035;-72
2023/08/24 00:10:47;;;;;;;20.90;8.75;;;;;;;16.70;100.00;101643.91;5100697;28;20023;-72
2023/08/24 00:13:13;;;;;;;21.92;8.77;;;;;;;16.71;100.00;101651.06;5084544;28;20111;-73
2023/08/24 00:15:39;;;;;;;19.10;7.70;;;;;;;16.71;100.00;101651.91;5103313;28;20031;-72
2023/08/24 00:18:05;;;;;;;23.33;8.15;;;;;;;16.71;100.00;101646.47;5082714;28;20116;-73
2023/08/24 00:20:32;;;;;;;19.73;8.52;;;;;;;16.71;100.00;101630.19;5079861;28;20571;-73
2023/08/24 00:22:58;;;;;;;20.50;8.27;;;;;;;16.71;100.00;101619.34;5084249;28;20057;-72
2023/08/24 00:25:23;;;;;;;19.27;8.40;;;;;;;16.70;100.00;101612.16;5101579;28;20028;-73
2023/08/24 00:27:49;;;;;;;19.38;7.93;;;;;;;16.70;100.00;101616.75;5102834;28;20040;-73
2023/08/24 00:30:15;;;;;;;20.05;8.75;;;;;;;16.69;100.00;101625.88;5099266;28;20058;-72
2023/08/24 00:32:40;;;;;;;19.58;8.07;;;;;;;16.69;100.00;101625.88;5081563;28;20114;-73
2023/08/24 00:35:06;;;;;;;19.80;7.75;;;;;;;16.69;100.00;101626.75;5105348;28;20126;-73
2023/08/24 00:37:32;;;;;;;19.52;7.43;;;;;;;16.70;100.00;101617.59;5085536;28;20094;-72
2023/08/24 00:40:00;;;;;;;19.13;8.27;;;;;;;16.71;100.00;101619.34;5104756;28;20132;-73
2023/08/24 00:42:26;;;;;;;21.05;9.05;;;;;;;16.72;100.00;101604.78;5109224;28;20028;-72
2023/08/24 00:44:51;;;;;;;19.30;7.88;;;;;;;16.75;100.00;101593.63;5094250;28;20107;-73
2023/08/24 00:47:17;;;;;;;20.67;8.82;;;;;;;16.74;100.00;101594.63;5104412;28;20500;-73
2023/08/24 00:49:43;;;;;;;20.20;8.30;;;;;;;16.75;100.00;101599.06;5104288;28;20649;-72
2023/08/24 00:52:09;;;;;;;22.27;8.15;;;;;;;16.74;100.00;101605.50;5085974;28;20019;-73
2023/08/24 00:54:36;;;;;;;20.23;8.25;;;;;;;16.75;100.00;101604.50;5101330;28;20076;-73
2023/08/24 00:57:02;;;;;;;20.83;8.15;;;;;;;16.77;100.00;101607.06;5086154;28;20551;-72
2023/08/24 00:59:27;;;;;;;23.15;8.43;;;;;;;16.78;100.00;101609.66;5085878;28;20106;-73
2023/08/24 01:01:53;;;;;;;19.40;8.02;;;;;;;16.82;100.00;101598.53;5115580;28;20035;-73
2023/08/24 01:04:18;;;;;;;21.83;7.97;;;;;;;16.82;100.00;101591.22;5104728;28;20037;-73
2023/08/24 01:06:43;;;;;;;22.80;8.88;;;;;;;16.84;100.00;101591.09;5125210;28;20040;-73
2023/08/24 01:09:09;;;;;;;19.65;8.05;;;;;;;16.85;100.00;101587.41;5125762;28;20397;-73
2023/08/24 01:12:19;;;;;;;21.35;8.60;;;;;;;16.89;100.00;101591.59;5125925;28;20276;-73
2023/08/24 01:14:54;;;;;;;19.95;8.05;;;;;;;16.90;100.00;101607.75;5107689;28;20034;-73
2023/08/24 01:17:24;;;;;;;19.83;7.13;;;;;;;16.91;100.00;101606.75;5107979;28;20076;-73
2023/08/24 01:19:50;;;;;;;20.05;9.48;;;;;;;16.91;100.00;101600.44;5127076;28;20724;-73
2023/08/24 01:22:27;;;;;;;19.10;7.80;;;;;;;16.91;100.00;101586.88;5107828;28;20038;-73
2023/08/24 01:25:23;;;;;;;17.80;7.22;;;;;;;16.89;100.00;101592.44;5126770;27;20107;-73
2023/08/24 01:27:49;;;;;;;18.85;7.90;;;;;;;16.91;100.00;101584.16;5126064;28;20040;-73
2023/08/24 01:30:15;;;;;;;21.35;8.23;;;;;;;16.92;100.00;101581.31;5125825;28;20007;-73
2023/08/24 01:32:40;;;;;;;20.17;8.05;;;;;;;16.95;100.00;101593.75;5107409;28;20375;-73
2023/08/24 01:35:09;;;;;;;22.90;9.02;;;;;;;16.99;100.00;101603.34;5126209;28;20103;-73
2023/08/24 01:37:35;;;;;;;20.95;8.75;;;;;;;16.99;100.00;101597.94;5123363;28;20024;-73
2023/08/24 01:40:35;;;;;;;19.30;8.13;;;;;;;17.02;100.00;101589.50;5108370;28;20041;-73
2023/08/24 01:43:05;;;;;;;20.48;7.53;;;;;;;17.00;100.00;101582.47;5123921;28;20069;-73
2023/08/24 01:45:32;;;;;;;20.30;8.68;;;;;;;17.00;100.00;101583.38;5104618;28;20065;-74
2023/08/24 01:48:00;;;;;;;19.58;8.32;;;;;;;17.01;100.00;101592.34;5126474;28;20032;-73
2023/08/24 01:50:25;;;;;;;19.65;8.27;;;;;;;17.01;100.00;101595.94;5127717;28;20035;-73
2023/08/24 01:52:51;;;;;;;22.98;9.27;;;;;;;17.01;100.00;101587.78;5127844;27;20020;-73
2023/08/24 01:55:20;;;;;;;19.67;8.15;;;;;;;17.02;100.00;101599.53;5126331;28;20043;-73
2023/08/24 01:57:45;;;;;;;20.13;8.93;;;;;;;17.01;100.00;101598.63;5114864;27;20043;-73
2023/08/24 02:00:11;;;;;;;19.85;8.55;;;;;;;17.01;100.00;101601.34;5137564;28;20037;-73
2023/08/24 02:02:38;;;;;;;20.75;8.93;;;;;;;17.02;100.00;101600.38;5136978;27;20103;-73
2023/08/24 02:05:03;;;;;;;23.35;8.60;;;;;;;17.05;100.00;101593.81;5132041;28;20028;-73
2023/08/24 02:07:29;;;;;;;21.55;9.50;;;;;;;17.08;100.00;101591.66;5117570;28;20038;-74
2023/08/24 02:09:54;;;;;;;20.75;9.13;;;;;;;17.12;100.00;101581.41;5139908;27;20020;-73
2023/08/24 02:12:20;;;;;;;22.05;9.48;;;;;;;17.15;100.00;101572.13;5102918;28;20053;-72
2023/08/24 02:14:45;;;;;;;20.20;8.80;;;;;;;17.15;100.00;101567.53;5115970;28;20107;-73
2023/08/24 02:17:11;;;;;;;19.08;7.70;;;;;;;17.18;100.00;101572.69;5115904;28;20042;-72
2023/08/24 02:19:36;;;;;;;19.48;8.98;;;;;;;17.17;100.00;101578.28;5095846;28;20113;-73
2023/08/24 02:22:02;;;;;;;20.25;9.00;;;;;;;17.18;100.00;101588.16;5110242;28;20094;-73
2023/08/24 02:24:27;;;;;;;21.38;9.05;;;;;;;17.19;100.00;101576.25;5114275;28;20028;-73
2023/08/24 02:26:52;;;;;;;21.05;9.02;;;;;;;17.20;100.00;101572.56;5115814;28;20440;-72
2023/08/24 02:29:18;;;;;;;21.80;9.65;;;;;;;17.20;100.00;101565.25;5108509;28;20020;-72
2023/08/24 02:31:43;;;;;;;21.50;10.23;;;;;;;17.21;100.00;101577.00;5112583;28;20028;-72
2023/08/24 02:34:08;;;;;;;21.58;9.50;;;;;;;17.21;100.00;101583.28;5111678;28;20031;-72
2023/08/24 02:36:34;;;;;;;20.48;9.52;;;;;;;17.19;100.00;101579.84;5096636;28;20028;-72
2023/08/24 02:39:00;;;;;;;21.00;9.18;;;;;;;17.19;100.00;101576.25;5102376;28;20062;-72
2023/08/24 02:41:26;;;;;;;19.73;8.75;;;;;;;17.20;100.00;101572.56;5091245;28;20035;-72
2023/08/24 02:43:51;;;;;;;24.10;9.95;;;;;;;17.18;100.00;101556.41;5099997;28;20036;-72
2023/08/24 02:46:18;;;;;;;19.88;8.75;;;;;;;17.19;100.00;101552.69;5105350;28;20031;-73
2023/08/24 02:48:43;;;;;;;22.50;9.48;;;;;;;17.21;100.00;101539.81;5116683;28;20443;-72
2023/08/24 02:51:10;;;;;;;19.95;8.55;;;;;;;17.25;100.00;101529.56;5092703;28;20069;-72
2023/08/24 02:53:35;;;;;;;21.17;9.48;;;;;;;17.28;100.00;101518.41;5114811;28;20382;-72
2023/08/24 02:56:00;;;;;;;21.75;9.82;;;;;;;17.31;100.00;101520.84;5118356;28;20031;-73
2023/08/24 02:58:26;;;;;;;20.60;9.50;;;;;;;17.33;100.00;101510.66;5109689;28;20024;-72
2023/08/24 03:00:52;;;;;;;22.08;9.80;;;;;;;17.33;100.00;101498.97;5097597;28;20381;-73
2023/08/24 03:03:17;;;;;;;24.77;11.15;;;;;;;17.34;100.00;101487.94;5114933;28;20386;-73
2023/08/24 03:05:57;;;;;;;22.65;10.15;;;;;;;17.33;100.00;101461.78;5090793;28;20101;-73
2023/08/24 03:08:23;;;;;;;;;;;;;;;17.38;100.00;101448.63;5099161;28;20114;-73
2023/08/24 03:10:48;;;;;;;22.85;9.70;;;;;;;17.35;100.00;101423.59;5118298;28;19946;-73
2023/08/24 03:13:13;;;;;;;23.85;10.48;;;;;;;17.35;100.00;101429.91;5118702;28;20102;-73
2023/08/24 03:15:39;;;;;;;24.00;11.55;;;;;;;17.37;100.00;101446.06;5112217;28;20023;-73
2023/08/24 03:18:04;;;;;;;24.60;12.13;;;;;;;17.37;100.00;101455.06;5115819;28;20028;-73
2023/08/24 03:20:29;;;;;;;22.60;12.00;;;;;;;17.40;100.00;101448.50;5116891;28;20023;-73
2023/08/24 03:22:55;;;;;;;23.52;11.88;;;;;;;17.43;100.00;101431.91;5101122;28;20383;-73
2023/08/24 03:25:21;;;;;;;23.85;11.73;;;;;;;17.46;100.00;101415.31;5119697;28;20016;-72
2023/08/24 03:27:47;;;;;;;25.77;13.73;;;;;;;17.48;100.00;101407.84;5096876;28;20031;-72
2023/08/24 03:30:13;;;;;;;25.38;12.48;;;;;;;17.48;100.00;101402.41;5099428;28;20053;-72
2023/08/24 03:32:40;;;;;;;23.40;13.13;;;;;;;17.51;100.00;101396.72;5114340;28;20028;-72
2023/08/24 03:35:05;;;;;;;23.35;12.95;;;;;;;17.50;100.00;101386.84;5099221;28;20391;-73
2023/08/24 03:37:31;;;;;;;23.65;12.55;;;;;;;17.50;100.00;101380.53;5096591;28;20020;-72
2023/08/24 03:39:56;;;;;;;26.48;13.27;;;;;;;17.52;100.00;101375.81;5100288;28;20027;-73
2023/08/24 03:42:21;;;;;;;24.63;13.50;;;;;;;17.53;100.00;101370.25;5109697;28;20069;-74
2023/08/24 03:44:47;;;;;;;28.33;13.82;;;;;;;17.53;100.00;101358.53;5117928;28;20031;-72
2023/08/24 03:47:12;;;;;;;25.30;13.75;;;;;;;17.55;100.00;101364.66;5117472;28;20118;-73
2023/08/24 03:49:37;;;;;;;26.77;14.18;;;;;;;17.57;100.00;101365.34;5116796;28;20152;-73
2023/08/24 03:52:03;;;;;;;25.80;14.63;;;;;;;17.57;100.00;101365.34;5096694;28;20121;-73
2023/08/24 03:54:28;;;;;;;26.15;14.23;;;;;;;17.57;100.00;101368.94;5119382;28;20139;-72
2023/08/24 03:56:54;;;;;;;29.58;17.45;;;;;;;17.57;100.00;101385.25;5094439;28;20027;-73
2023/08/24 03:59:19;;;;;;;30.80;16.90;;;;;;;17.56;100.00;101388.13;5099000;28;20027;-73
2023/08/24 04:01:44;;;;;;;27.25;16.55;;;;;;;17.54;100.00;101388.28;5096626;28;20058;-73
2023/08/24 04:04:10;;;;;;;34.17;17.38;;;;;;;17.53;100.00;101388.41;5117050;28;20032;-73
2023/08/24 04:06:36;;;;;;;31.73;17.33;;;;;;;17.51;100.00;101388.56;5118663;28;20020;-72
2023/08/24 04:09:01;;;;;;;24.60;14.95;;;;;;;17.49;100.00;101386.97;5097523;28;20114;-73
2023/08/24 04:11:27;;;;;;;26.55;16.30;;;;;;;17.47;100.00;101398.84;5115496;28;20471;-73
2023/08/24 04:13:52;;;;;;;28.80;16.33;;;;;;;17.44;100.00;101401.00;5119014;28;20024;-72
2023/08/24 04:16:18;;;;;;;26.08;14.32;;;;;;;17.41;100.00;101404.88;5119611;28;20024;-73
2023/08/24 04:18:44;;;;;;;30.23;16.48;;;;;;;17.38;100.00;101405.16;5101565;28;20043;-73
2023/08/24 04:21:09;;;;;;;26.27;15.20;;;;;;;17.35;100.00;101404.56;5121511;28;20062;-73
2023/08/24 04:23:34;;;;;;;25.80;15.98;;;;;;;17.34;100.00;101402.88;5101512;28;20034;-72
2023/08/24 04:26:00;;;;;;;27.50;15.95;;;;;;;17.33;100.00;101412.03;5119027;28;20398;-73
2023/08/24 04:28:25;;;;;;;29.95;15.80;;;;;;;17.32;100.00;101419.31;5101939;28;20115;-73
2023/08/24 04:30:52;;;;;;;28.88;15.45;;;;;;;17.29;100.00;101412.31;5100151;28;20028;-73
2023/08/24 04:33:18;;;;;;;27.65;15.43;;;;;;;17.27;100.00;101414.28;5091936;28;20114;-73
2023/08/24 04:35:46;;;;;;;27.05;15.40;;;;;;;17.26;100.00;101411.72;5091957;28;20550;-73
2023/08/24 04:38:12;;;;;;;26.95;16.90;;;;;;;17.24;100.00;101413.72;5093433;28;20734;-73
2023/08/24 04:41:07;;;;;;;28.25;16.58;;;;;;;17.22;100.00;101411.16;5090769;28;20027;-73
2023/08/24 04:43:32;;;;;;;29.65;16.88;;;;;;;17.20;100.00;101412.28;5105872;28;20046;-73
2023/08/24 04:45:58;;;;;;;26.98;15.52;;;;;;;17.18;100.00;101414.31;5090025;28;20019;-73
2023/08/24 04:48:25;;;;;;;28.98;16.65;;;;;;;17.14;100.00;101412.88;5088687;28;20158;-73
2023/08/24 04:50:52;;;;;;;28.23;17.00;;;;;;;17.10;100.00;101412.28;5085004;28;20027;-73
2023/08/24 04:53:19;;;;;;;28.65;15.48;;;;;;;17.09;100.00;101410.59;5106564;28;20064;-73
2023/08/24 04:55:45;;;;;;;26.98;15.63;;;;;;;17.07;100.00;101407.13;5109660;28;20024;-73
2023/08/24 04:58:11;;;;;;;27.35;16.40;;;;;;;17.04;100.00;101399.25;5093015;28;20105;-74
2023/08/24 05:00:37;;;;;;;29.40;16.75;;;;;;;17.02;100.00;101398.56;5100813;28;20015;-74
2023/08/24 05:03:04;;;;;;;28.98;16.00;;;;;;;17.00;100.00;101409.56;5091319;28;20038;-74
2023/08/24 05:05:31;;;;;;;27.92;16.52;;;;;;;16.98;100.00;101414.25;5107668;28;20020;-74
2023/08/24 05:07:57;;;;;;;26.50;16.73;;;;;;;16.94;100.00;101421.84;5086902;28;20051;-74
2023/08/24 05:10:22;;;;;;;26.92;16.73;;;;;;;16.93;100.00;101425.56;5106579;28;20058;-74
2023/08/24 05:12:47;;;;;;;30.30;17.05;;;;;;;16.90;100.00;101422.28;5108920;28;20104;-74
2023/08/24 05:15:13;;;;;;;25.30;15.98;;;;;;;16.90;100.00;101416.84;5111289;28;20443;-74
2023/08/24 05:17:39;;;;;;;27.17;17.90;;;;;;;16.89;100.00;101406.97;5108115;28;20020;-74
2023/08/24 05:20:05;;;;;;;36.30;18.83;;;;;;;16.90;100.00;101406.84;5108721;28;20047;-74
2023/08/24 05:22:30;;;;;;;32.40;19.33;;;;;;;16.94;100.00;101407.38;5093247;28;20023;-74
2023/08/24 05:24:56;;;;;;;28.83;18.42;;;;;;;16.98;100.00;101397.13;5095073;28;20183;-74
2023/08/24 05:27:21;;;;;;;29.20;19.77;;;;;;;17.00;100.00;101386.97;5102308;28;20051;-74
2023/08/24 05:29:46;;;;;;;29.95;19.60;;;;;;;17.03;100.00;101384.84;5095887;28;20114;-74
2023/08/24 05:32:11;;;;;;;30.73;17.75;;;;;;;17.05;100.00;101390.13;5093733;28;20019;-74
2023/08/24 05:34:37;;;;;;;28.23;18.52;;;;;;;17.06;100.00;101389.13;5112091;28;20019;-74
2023/08/24 05:37:02;;;;;;;32.90;18.70;;;;;;;17.07;100.00;101391.72;5111242;28;20138;-74
2023/08/24 05:39:27;;;;;;;29.50;18.88;;;;;;;17.07;100.00;101382.69;5095218;28;20016;-74
2023/08/24 05:41:53;;;;;;;28.98;17.67;;;;;;;17.09;100.00;101384.28;5114743;28;20027;-74
2023/08/24 05:44:21;;;;;;;29.85;20.02;;;;;;;17.10;100.00;101386.00;5095060;28;20026;-74
2023/08/24 05:46:47;;;;;;;29.00;19.63;;;;;;;17.15;100.00;101385.56;5092853;28;20033;-74
2023/08/24 05:49:13;;;;;;;29.85;18.95;;;;;;;17.16;100.00;101380.97;5092633;28;20423;-74
2023/08/24 05:51:38;;;;;;;31.10;19.35;;;;;;;17.17;100.00;101377.28;5110414;28;20024;-74
2023/08/24 05:54:03;;;;;;;33.00;20.15;;;;;;;17.20;100.00;101372.41;5110358;28;20475;-74
2023/08/24 05:56:29;;;;;;;31.27;19.13;;;;;;;17.23;100.00;101365.81;5110279;28;20429;-74
2023/08/24 05:58:54;;;;;;;30.88;20.92;;;;;;;17.25;100.00;101358.41;5097852;28;20509;-74
2023/08/24 06:01:20;;;;;;;32.55;21.45;;;;;;;17.29;100.00;101346.22;5104328;28;20028;-74
2023/08/24 06:03:45;;;;;;;34.22;21.40;;;;;;;17.33;100.00;101339.50;5096089;28;20387;-74
2023/08/24 06:06:11;;;;;;;29.80;20.67;;;;;;;17.36;100.00;101331.06;5108496;28;20023;-74
2023/08/24 06:08:36;;;;;;;32.20;20.10;;;;;;;17.39;100.00;101328.06;5112009;28;20027;-74
2023/08/24 06:11:01;;;;;;;31.17;20.80;;;;;;;17.42;100.00;101322.34;5111536;28;20069;-74
2023/08/24 06:13:27;;;;;;;28.75;20.35;;;;;;;17.46;100.00;101302.00;5111190;28;20047;-74
2023/08/24 06:15:54;;;;;;;31.48;21.55;;;;;;;17.50;100.00;101309.88;5114206;28;20114;-73
2023/08/24 06:18:19;;;;;;;32.78;20.05;;;;;;;17.54;100.00;101317.59;5108479;28;20023;-74
2023/08/24 06:20:45;;;;;;;30.15;20.25;;;;;;;17.58;100.00;101316.28;5109263;28;20027;-73
2023/08/24 06:23:11;;;;;;;31.25;21.05;;;;;;;17.64;100.00;101323.00;5107007;28;20079;-75
2023/08/24 06:25:36;;;;;;;31.63;21.00;;;;;;;17.69;100.00;101318.00;5110737;28;20386;-75
2023/08/24 06:28:04;;;;;;;32.22;21.25;;;;;;;17.73;100.00;101322.13;5091292;28;20107;-74
2023/08/24 06:30:32;;;;;;;33.97;21.30;;;;;;;17.79;100.00;101328.84;5107748;28;20069;-74
2023/08/24 06:32:58;;;;;;;29.03;20.63;;;;;;;17.84;100.00;101331.13;5093923;28;20498;-74
2023/08/24 06:35:24;;;;;;;31.00;21.23;;;;;;;17.88;100.00;101322.50;5110878;28;20016;-73
2023/08/24 06:37:49;;;;;;;31.65;20.73;;;;;;;17.91;100.00;101319.53;5110704;28;20028;-73
2023/08/24 06:40:14;;;;;;;34.72;22.60;;;;;;;17.96;100.00;101324.50;5112260;28;20046;-73
2023/08/24 06:42:40;;;;;;;28.00;16.88;;;;;;;17.99;100.00;101322.34;5112156;28;20106;-73
2023/08/24 06:45:06;;;;;;;30.50;20.75;;;;;;;18.03;100.00;101314.75;5091917;28;20085;-73
2023/08/24 06:47:32;;;;;;;31.10;18.50;;;;;;;18.07;100.00;101321.59;5111768;28;20050;-73
2023/08/24 06:49:57;;;;;;;30.42;20.65;;;;;;;18.13;100.00;101321.00;5110926;28;20044;-73
2023/08/24 06:52:22;;;;;;;24.88;13.15;;;;;;;18.15;100.00;101321.69;5127651;28;20052;-71
2023/08/24 06:54:53;;;;;;;20.55;10.10;;;;;;;18.15;100.00;101332.56;5119938;28;20108;-74
2023/08/24 06:57:18;;;;;;;25.65;12.93;;;;;;;18.23;100.00;101333.69;5084412;28;20032;-73
2023/08/24 06:59:43;;;;;;;28.15;16.80;;;;;;;18.29;100.00;101322.22;5103581;28;20465;-71
2023/08/24 07:02:09;;;;;;;26.45;14.38;;;;;;;18.32;100.00;101332.78;5112093;28;20087;-70
2023/08/24 07:04:34;;;;;;;26.10;16.27;;;;;;;18.40;100.00;101323.88;5092152;28;20505;-71
2023/08/24 07:06:59;;;;;;;25.23;14.10;;;;;;;18.44;100.00;101314.38;5111639;28;20093;-72
2023/08/24 07:09:25;;;;;;;24.15;13.35;;;;;;;18.48;100.00;101313.09;5096810;28;20067;-71
2023/08/24 07:11:51;;;;;;;29.77;16.13;;;;;;;18.52;100.00;101307.16;5112434;28;20085;-71
2023/08/24 07:14:16;;;;;;;27.50;15.95;;;;;;;18.60;100.00;101297.38;5110786;28;20028;-71
2023/08/24 07:16:42;;;;;;;25.77;16.20;;;;;;;18.62;100.00;101298.91;5110122;28;20030;-72
2023/08/24 07:19:08;;;;;;;23.77;13.38;;;;;;;18.65;100.00;101297.75;5092469;28;20111;-71
2023/08/24 07:21:33;;;;;;;28.60;16.20;;;;;;;18.68;100.00;101301.03;5112016;28;20020;-71
2023/08/24 07:23:59;;;;;;;28.52;17.98;;;;;;;18.76;100.00;101308.44;5105332;28;20490;-71
2023/08/24 07:26:25;;;;;;;23.95;14.60;;;;;;;18.82;100.00;101306.97;5090540;28;20037;-71
2023/08/24 07:28:51;;;;;;;26.55;16.00;;;;;;;18.89;100.00;101299.91;5088940;28;20123;-71
2023/08/24 07:31:16;;;;;;;26.00;14.52;;;;;;;18.92;100.00;101302.31;5103975;28;20425;-73
2023/08/24 07:33:44;;;;;;;23.55;11.40;;;;;;;18.93;100.00;101301.31;5104399;28;20110;-71
2023/08/24 07:36:10;;;;;;;24.53;11.80;;;;;;;19.01;100.00;101295.06;5110643;28;20035;-71
2023/08/24 07:38:35;;;;;;;24.52;14.73;;;;;;;19.10;100.00;101293.28;5110903;28;20285;-72
2023/08/24 07:41:01;;;;;;;24.08;13.63;;;;;;;19.14;100.00;101300.97;5105091;28;20038;-71
2023/08/24 07:43:26;;;;;;;20.05;8.43;;;;;;;19.12;100.00;101294.84;5085200;28;20028;-71
2023/08/24 07:45:52;;;;;;;20.90;9.55;;;;;;;19.14;100.00;101295.53;5089395;28;20035;-71
2023/08/24 07:48:17;;;;;;;24.65;13.45;;;;;;;19.22;100.00;101292.00;5103400;28;20020;-71
2023/08/24 07:50:43;;;;;;;26.35;14.40;;;;;;;19.29;100.00;101292.22;5107986;28;20122;-71
2023/08/24 07:53:08;;;;;;;22.85;10.35;;;;;;;19.29;100.00;101295.81;5086635;28;20065;-71
2023/08/24 07:55:34;;;;;;;27.08;13.27;;;;;;;19.38;100.00;101292.13;5102165;28;20032;-72
2023/08/24 07:57:59;;;;;;;22.00;7.68;;;;;;;19.36;100.00;101298.75;5075827;28;20106;-74
2023/08/24 08:00:25;;;;;;;20.02;7.10;;;;;;;19.38;100.00;101303.00;5086843;28;20038;-70
2023/08/24 08:02:51;;;;;;;19.80;8.90;;;;;;;19.42;100.00;101305.44;5103773;28;20031;-72
2023/08/24 08:05:17;;;;;;;19.33;6.50;;;;;;;19.41;100.00;101307.31;5106331;28;20035;-71
2023/08/24 08:07:42;;;;;;;19.77;7.43;;;;;;;19.43;100.00;101302.56;5099014;28;20031;-73
2023/08/24 08:10:08;;;;;;;19.13;7.45;;;;;;;19.50;100.00;101298.19;5107420;28;20403;-72
2023/08/24 08:12:34;;;;;;;22.45;11.18;;;;;;;19.61;100.00;101297.03;5102311;28;20102;-73
2023/08/24 08:15:00;;;;;;;19.85;8.95;;;;;;;19.65;100.00;101290.25;5108080;28;20027;-72
2023/08/24 08:17:27;;;;;;;18.40;6.88;;;;;;;19.70;100.00;101287.88;5086698;28;20032;-72
2023/08/24 08:19:57;;;;;;;20.58;9.05;;;;;;;19.81;100.00;101285.94;5088722;28;20769;-74
2023/08/24 08:22:22;;;;;;;24.25;9.48;;;;;;;19.90;100.00;101283.09;5105376;28;20023;-73
2023/08/24 08:24:48;;;;;;;22.50;10.85;;;;;;;19.97;100.00;101272.38;5097169;28;20020;-73
2023/08/24 08:27:13;;;;;;;21.98;7.75;;;;;;;19.96;100.00;101270.69;5104847;28;20034;-73
2023/08/24 08:29:38;;;;;;;21.98;12.35;;;;;;;20.08;100.00;101273.97;5103815;28;20675;-72
2023/08/24 08:32:05;;;;;;;17.23;7.13;;;;;;;20.04;100.00;101272.56;5099793;28;20552;-73
2023/08/24 08:34:31;;;;;;;22.17;8.80;;;;;;;20.11;100.00;101272.78;5084557;28;20200;-72
2023/08/24 08:36:57;;;;;;;17.10;8.00;;;;;;;20.11;100.00;101262.72;5105109;28;20106;-72
2023/08/24 08:39:22;;;;;;;23.77;12.43;;;;;;;20.24;100.00;101259.53;5100028;28;20069;-72
2023/08/24 08:41:48;;;;;;;18.92;8.25;;;;;;;20.28;100.00;101258.16;5089621;28;20020;-72
2023/08/24 08:44:14;;;;;;;20.42;8.50;;;;;;;20.31;100.00;101252.38;5106769;28;20375;-73
2023/08/24 08:46:43;;;;;;;24.33;12.30;;;;;;;20.40;100.00;101242.31;5087102;28;20027;-72
2023/08/24 08:49:10;;;;;;;19.20;8.40;;;;;;;20.43;100.00;101239.25;5107521;28;20388;-72
2023/08/24 08:51:39;;;;;;;21.40;8.00;;;;;;;20.45;100.00;101225.44;5102183;28;20027;-72
2023/08/24 08:54:05;;;;;;;20.90;7.45;;;;;;;20.47;100.00;101220.66;5101671;28;20039;-72
2023/08/24 08:56:31;;;;;;;20.77;8.82;;;;;;;20.54;100.00;101219.81;5102739;28;20160;-72
2023/08/24 08:59:00;;;;;;;20.90;11.13;;;;;;;20.63;100.00;101197.97;5107877;28;20081;-73
2023/08/24 09:01:26;;;;;;;25.38;11.60;;;;;;;20.66;100.00;101193.06;5113282;28;20421;-73
2023/08/24 09:03:53;;;;;;;19.73;7.57;;;;;;;20.68;100.00;101185.53;5105546;28;20080;-73
2023/08/24 09:06:19;;;;;;;18.95;7.70;;;;;;;20.71;100.00;101170.69;5089800;28;20035;-73
2023/08/24 09:08:45;;;;;;;20.05;7.07;;;;;;;20.74;100.00;101173.09;5090237;28;20028;-74
2023/08/24 09:11:10;;;;;;;19.90;8.63;;;;;;;20.82;100.00;101159.44;5092149;28;20031;-74
2023/08/24 09:13:36;;;;;;;18.35;7.93;;;;;;;20.84;100.00;101160.09;5115264;28;20020;-74
2023/08/24 09:16:08;;;;;;;17.60;7.35;;;;;;;20.84;100.00;101160.09;5112784;28;20466;-73
2023/08/24 09:18:36;;;;;;;20.73;10.50;;;;;;;20.91;100.00;101138.41;5112479;28;20035;-73
2023/08/24 09:21:10;;;;;;;23.25;11.27;;;;;;;20.98;100.00;101146.75;5095365;28;20031;-73
2023/08/24 09:23:35;;;;;;;24.90;14.45;;;;;;;21.06;100.00;101141.28;5095047;28;20386;-73
2023/08/24 09:26:01;;;;;;;22.50;10.80;;;;;;;21.13;100.00;101134.09;5094648;28;20020;-73
2023/08/24 09:28:26;;;;;;;25.13;10.43;;;;;;;21.18;100.00;101130.84;5095940;28;20143;-73
2023/08/24 09:30:54;;;;;;;25.23;10.98;;;;;;;21.23;100.00;101136.59;5109989;28;20483;-73
2023/08/24 09:33:22;;;;;;;23.05;12.00;;;;;;;21.35;100.00;101142.53;5104912;28;20047;-73
2023/08/24 09:35:53;;;;;;;21.55;8.60;;;;;;;21.34;100.00;101146.34;5111330;28;20433;-73
2023/08/24 09:38:19;;;;;;;21.92;9.88;;;;;;;21.34;100.00;101155.38;5109819;28;20034;-73
2023/08/24 09:40:49;;;;;;;21.60;10.38;;;;;;;21.40;100.00;101181.16;5110969;28;20034;-73
2023/08/24 09:43:14;;;;;;;25.77;14.88;;;;;;;21.46;100.00;101194.13;5110816;28;20027;-74
2023/08/24 09:45:52;;;;;;;20.10;10.50;;;;;;;21.45;100.00;101204.22;5091839;28;20024;-73
2023/08/24 09:48:18;;;;;;;22.30;11.63;;;;;;;21.51;100.00;101191.75;5111873;28;20248;-74
2023/08/24 09:50:49;;;;;;;20.13;8.05;;;;;;;21.46;100.00;101194.13;5103930;28;20028;-73
2023/08/24 09:53:20;;;;;;;22.17;9.90;;;;;;;21.51;100.00;101191.75;5107919;28;20118;-74
2023/08/24 09:55:58;;;;;;;25.92;11.43;;;;;;;21.57;100.00;101196.53;5090931;28;20039;-73
2023/08/24 09:58:24;;;;;;;25.25;15.25;;;;;;;21.62;100.00;101202.28;5105362;28;20078;-73
2023/08/24 10:00:50;;;;;;;21.92;11.20;;;;;;;21.66;100.00;101204.72;5096706;28;20023;-74
2023/08/24 10:03:20;;;;;;;19.60;9.60;;;;;;;21.68;100.00;101213.56;5112510;28;20023;-73
2023/08/24 10:05:49;;;;;;;21.20;8.60;;;;;;;21.64;100.00;101216.66;5112492;28;20058;-74
2023/08/24 10:08:20;;;;;;;26.95;13.38;;;;;;;21.70;100.00;101219.72;5111588;28;20015;-74
2023/08/24 10:10:47;;;;;;;22.15;10.90;;;;;;;21.77;100.00;101223.44;5106379;28;20074;-74
2023/08/24 10:13:26;;;;;;;25.08;12.65;;;;;;;21.79;100.00;101227.72;5094507;28;20032;-74
2023/08/24 10:15:52;;;;;;;;;;;;;;;21.78;100.00;101230.63;5113994;28;20032;-74
2023/08/24 10:18:19;;;;;;;20.60;9.50;;;;;;;21.72;100.00;101217.66;5110571;28;19919;-74
2023/08/24 10:20:46;;;;;;;18.60;9.23;;;;;;;21.73;100.00;101213.88;5113365;28;20028;-74
2023/08/24 10:23:14;;;;;;;21.10;9.43;;;;;;;21.77;100.00;101212.50;5106478;28;20479;-75
2023/08/24 10:25:41;;;;;;;23.83;7.65;;;;;;;21.72;100.00;101204.84;5111213;28;20062;-75
2023/08/24 10:28:07;;;;;;;19.00;8.18;;;;;;;21.76;100.00;101219.88;5103662;28;20031;-75
2023/08/24 10:30:35;;;;;;;23.05;9.02;;;;;;;21.76;100.00;101216.28;5102950;28;20035;-75
2023/08/24 10:33:01;;;;;;;21.85;8.38;;;;;;;21.73;100.00;101233.03;5104476;28;20152;-74
2023/08/24 10:35:27;;;;;;;20.73;8.38;;;;;;;21.73;100.00;101238.50;5102164;28;20116;-75
2023/08/24 10:37:53;;;;;;;23.83;8.40;;;;;;;21.72;100.00;101234.09;5112744;28;20023;-75
2023/08/24 10:40:35;;;;;;;22.23;7.78;;;;;;;21.75;100.00;101244.66;5092540;28;20395;-75
2023/08/24 10:43:07;;;;;;;20.27;8.40;;;;;;;21.72;100.00;101247.75;5087424;28;20045;-75
2023/08/24 10:46:01;;;;;;;21.02;8.13;;;;;;;21.72;100.00;101248.59;5092644;28;20076;-75
2023/08/24 10:48:30;;;;;;;19.88;7.05;;;;;;;21.71;100.00;101243.31;5113465;28;20027;-76
2023/08/24 10:51:13;;;;;;;19.42;8.00;;;;;;;21.72;100.00;101245.88;5112792;28;20023;-77
2023/08/24 10:53:45;;;;;;;20.10;7.90;;;;;;;21.73;100.00;101243.97;5117333;28;20023;-76
2023/08/24 10:56:14;;;;;;;19.45;8.05;;;;;;;21.78;100.00;101238.84;5093358;28;20028;-77
2023/08/24 10:58:39;;;;;;;;;;;;;;;21.84;100.00;101238.13;5096173;28;20035;-77
2023/08/24 11:01:05;;;;;;;20.45;9.68;;;;;;;21.85;100.00;101223.44;5093830;28;19923;-77
2023/08/24 11:03:34;;;;;;;18.05;8.43;;;;;;;21.83;100.00;101225.47;5091196;28;20043;-77
2023/08/24 11:05:59;;;;;;;21.67;9.50;;;;;;;21.92;100.00;101232.63;5091618;28;20091;-77